sensor_id;sensor_type;location;lat;lon;timestamp;P1;durP1;ratioP1;P2;durP2;ratioP2
13588;SDS011;6865;52.552;13.434;2023-08-06T00:00:40;9.35;;;7.40;;
13588;SDS011;6865;52.552;13.434;2023-08-06T00:03:07;7.72;;;6.85;;
13588;SDS011;6865;52.552;13.434;2023-08-06T00:05:33;8.80;;;7.15;;
13588;SDS011;6865;52.552;13.434;2023-08-06T00:08:00;8.52;;;7.50;;
13588;SDS011;6865;52.552;13.434;2023-08-06T00:10:27;8.45;;;7.65;;
13588;SDS011;6865;52.552;13.434;2023-08-06T00:12:54;10.05;;;7.32;;
13588;SDS011;6865;52.552;13.434;2023-08-06T00:15:21;8.73;;;7.90;;
13588;SDS011;6865;52.552;13.434;2023-08-06T00:17:48;9.05;;;8.05;;
13588;SDS011;6865;52.552;13.434;2023-08-06T00:20:15;8.93;;;7.90;;
13588;SDS011;6865;52.552;13.434;2023-08-06T00:22:41;8.43;;;7.53;;
13588;SDS011;6865;52.552;13.434;2023-08-06T00:25:08;7.63;;;6.93;;
13588;SDS011;6865;52.552;13.434;2023-08-06T00:27:35;8.07;;;7.15;;
13588;SDS011;6865;52.552;13.434;2023-08-06T00:30:01;9.18;;;7.55;;
13588;SDS011;6865;52.552;13.434;2023-08-06T00:32:28;8.60;;;7.38;;
13588;SDS011;6865;52.552;13.434;2023-08-06T00:34:55;8.27;;;7.45;;
13588;SDS011;6865;52.552;13.434;2023-08-06T00:37:22;8.85;;;7.72;;
13588;SDS011;6865;52.552;13.434;2023-08-06T00:39:49;8.35;;;7.55;;
13588;SDS011;6865;52.552;13.434;2023-08-06T00:42:16;8.23;;;7.40;;
13588;SDS011;6865;52.552;13.434;2023-08-06T00:44:46;8.00;;;7.20;;
13588;SDS011;6865;52.552;13.434;2023-08-06T00:47:13;9.00;;;7.93;;
13588;SDS011;6865;52.552;13.434;2023-08-06T00:49:41;8.02;;;7.22;;
13588;SDS011;6865;52.552;13.434;2023-08-06T00:52:08;8.70;;;7.50;;
13588;SDS011;6865;52.552;13.434;2023-08-06T00:54:35;8.95;;;7.50;;
13588;SDS011;6865;52.552;13.434;2023-08-06T00:57:02;8.63;;;7.82;;
13588;SDS011;6865;52.552;13.434;2023-08-06T00:59:31;8.50;;;7.60;;
13588;SDS011;6865;52.552;13.434;2023-08-06T01:01:58;8.77;;;7.97;;
13588;SDS011;6865;52.552;13.434;2023-08-06T01:04:25;7.72;;;7.00;;
13588;SDS011;6865;52.552;13.434;2023-08-06T01:06:55;8.25;;;7.45;;
13588;SDS011;6865;52.552;13.434;2023-08-06T01:12:52;8.10;;;7.30;;
13588;SDS011;6865;52.552;13.434;2023-08-06T01:15:38;8.05;;;7.25;;
13588;SDS011;6865;52.552;13.434;2023-08-06T01:18:10;9.02;;;7.60;;
13588;SDS011;6865;52.552;13.434;2023-08-06T01:20:37;9.13;;;8.13;;
13588;SDS011;6865;52.552;13.434;2023-08-06T01:23:04;9.20;;;7.82;;
13588;SDS011;6865;52.552;13.434;2023-08-06T01:25:35;7.85;;;7.10;;
13588;SDS011;6865;52.552;13.434;2023-08-06T01:28:15;8.45;;;7.47;;
13588;SDS011;6865;52.552;13.434;2023-08-06T01:30:49;8.65;;;7.75;;
13588;SDS011;6865;52.552;13.434;2023-08-06T01:33:19;7.57;;;6.88;;
13588;SDS011;6865;52.552;13.434;2023-08-06T01:35:49;7.57;;;6.85;;
13588;SDS011;6865;52.552;13.434;2023-08-06T01:38:17;8.10;;;7.40;;
13588;SDS011;6865;52.552;13.434;2023-08-06T01:40:44;7.75;;;7.03;;
13588;SDS011;6865;52.552;13.434;2023-08-06T01:43:10;7.22;;;6.53;;
13588;SDS011;6865;52.552;13.434;2023-08-06T01:45:37;8.80;;;7.90;;
13588;SDS011;6865;52.552;13.434;2023-08-06T01:48:04;8.88;;;8.00;;
13588;SDS011;6865;52.552;13.434;2023-08-06T01:50:30;8.30;;;7.50;;
13588;SDS011;6865;52.552;13.434;2023-08-06T01:52:57;8.32;;;7.53;;
13588;SDS011;6865;52.552;13.434;2023-08-06T01:55:24;9.07;;;7.90;;
13588;SDS011;6865;52.552;13.434;2023-08-06T01:57:50;9.38;;;7.80;;
13588;SDS011;6865;52.552;13.434;2023-08-06T02:00:17;8.68;;;7.75;;
13588;SDS011;6865;52.552;13.434;2023-08-06T02:02:44;8.48;;;7.68;;
13588;SDS011;6865;52.552;13.434;2023-08-06T02:05:10;8.43;;;7.55;;
13588;SDS011;6865;52.552;13.434;2023-08-06T02:07:37;9.40;;;8.48;;
13588;SDS011;6865;52.552;13.434;2023-08-06T02:10:04;9.07;;;8.20;;
13588;SDS011;6865;52.552;13.434;2023-08-06T02:12:31;9.52;;;8.55;;
13588;SDS011;6865;52.552;13.434;2023-08-06T02:14:57;11.48;;;8.32;;
13588;SDS011;6865;52.552;13.434;2023-08-06T02:17:24;10.07;;;8.43;;
13588;SDS011;6865;52.552;13.434;2023-08-06T02:19:51;8.82;;;7.90;;
13588;SDS011;6865;52.552;13.434;2023-08-06T02:22:17;10.23;;;8.63;;
13588;SDS011;6865;52.552;13.434;2023-08-06T02:24:44;10.18;;;9.18;;
13588;SDS011;6865;52.552;13.434;2023-08-06T02:27:11;9.95;;;8.93;;
13588;SDS011;6865;52.552;13.434;2023-08-06T02:29:39;9.57;;;8.57;;
13588;SDS011;6865;52.552;13.434;2023-08-06T02:32:07;9.23;;;8.32;;
13588;SDS011;6865;52.552;13.434;2023-08-06T02:34:33;8.85;;;7.95;;
13588;SDS011;6865;52.552;13.434;2023-08-06T02:37:00;9.30;;;8.40;;
13588;SDS011;6865;52.552;13.434;2023-08-06T02:39:27;9.93;;;8.77;;
13588;SDS011;6865;52.552;13.434;2023-08-06T02:41:53;8.93;;;8.02;;
13588;SDS011;6865;52.552;13.434;2023-08-06T02:44:21;9.63;;;8.70;;
13588;SDS011;6865;52.552;13.434;2023-08-06T02:46:47;8.48;;;7.68;;
13588;SDS011;6865;52.552;13.434;2023-08-06T02:49:14;8.95;;;8.15;;
13588;SDS011;6865;52.552;13.434;2023-08-06T02:51:41;8.35;;;7.57;;
13588;SDS011;6865;52.552;13.434;2023-08-06T02:54:07;8.63;;;7.72;;
13588;SDS011;6865;52.552;13.434;2023-08-06T02:56:34;9.40;;;8.50;;
13588;SDS011;6865;52.552;13.434;2023-08-06T02:59:00;8.30;;;7.32;;
13588;SDS011;6865;52.552;13.434;2023-08-06T03:01:27;9.32;;;8.45;;
13588;SDS011;6865;52.552;13.434;2023-08-06T03:03:54;9.35;;;8.40;;
13588;SDS011;6865;52.552;13.434;2023-08-06T03:06:21;8.50;;;7.63;;
13588;SDS011;6865;52.552;13.434;2023-08-06T03:08:48;8.68;;;7.88;;
13588;SDS011;6865;52.552;13.434;2023-08-06T03:11:14;9.75;;;8.77;;
13588;SDS011;6865;52.552;13.434;2023-08-06T03:13:41;8.45;;;7.55;;
13588;SDS011;6865;52.552;13.434;2023-08-06T03:16:08;9.40;;;8.10;;
13588;SDS011;6865;52.552;13.434;2023-08-06T03:18:34;8.57;;;7.72;;
13588;SDS011;6865;52.552;13.434;2023-08-06T03:21:01;9.30;;;8.38;;
13588;SDS011;6865;52.552;13.434;2023-08-06T03:23:28;8.38;;;7.57;;
13588;SDS011;6865;52.552;13.434;2023-08-06T03:25:54;8.95;;;8.05;;
13588;SDS011;6865;52.552;13.434;2023-08-06T03:28:21;8.98;;;7.72;;
13588;SDS011;6865;52.552;13.434;2023-08-06T03:30:58;8.77;;;7.65;;
13588;SDS011;6865;52.552;13.434;2023-08-06T03:33:25;11.80;;;8.10;;
13588;SDS011;6865;52.552;13.434;2023-08-06T03:35:52;8.75;;;7.95;;
13588;SDS011;6865;52.552;13.434;2023-08-06T03:38:19;8.77;;;7.90;;
13588;SDS011;6865;52.552;13.434;2023-08-06T03:40:46;9.07;;;8.18;;
13588;SDS011;6865;52.552;13.434;2023-08-06T03:43:12;8.98;;;8.18;;
13588;SDS011;6865;52.552;13.434;2023-08-06T03:45:40;8.35;;;7.55;;
13588;SDS011;6865;52.552;13.434;2023-08-06T03:48:07;8.60;;;7.78;;
13588;SDS011;6865;52.552;13.434;2023-08-06T03:50:34;7.80;;;7.00;;
13588;SDS011;6865;52.552;13.434;2023-08-06T03:53:01;8.80;;;7.80;;
13588;SDS011;6865;52.552;13.434;2023-08-06T03:55:27;8.50;;;7.60;;
13588;SDS011;6865;52.552;13.434;2023-08-06T03:57:54;9.20;;;8.40;;
13588;SDS011;6865;52.552;13.434;2023-08-06T04:00:21;8.90;;;8.05;;
13588;SDS011;6865;52.552;13.434;2023-08-06T04:02:48;8.52;;;7.72;;
13588;SDS011;6865;52.552;13.434;2023-08-06T04:05:15;9.40;;;8.35;;
13588;SDS011;6865;52.552;13.434;2023-08-06T04:07:43;8.80;;;8.00;;
13588;SDS011;6865;52.552;13.434;2023-08-06T04:10:09;9.10;;;8.20;;
13588;SDS011;6865;52.552;13.434;2023-08-06T04:12:36;9.85;;;7.95;;
13588;SDS011;6865;52.552;13.434;2023-08-06T04:15:05;9.50;;;8.60;;
13588;SDS011;6865;52.552;13.434;2023-08-06T04:17:32;9.45;;;8.55;;
13588;SDS011;6865;52.552;13.434;2023-08-06T04:19:59;9.48;;;8.45;;
13588;SDS011;6865;52.552;13.434;2023-08-06T04:22:26;9.77;;;8.65;;
13588;SDS011;6865;52.552;13.434;2023-08-06T04:24:53;9.40;;;8.50;;
13588;SDS011;6865;52.552;13.434;2023-08-06T04:27:19;9.88;;;8.88;;
13588;SDS011;6865;52.552;13.434;2023-08-06T04:29:46;9.10;;;8.20;;
13588;SDS011;6865;52.552;13.434;2023-08-06T04:32:13;9.35;;;8.43;;
13588;SDS011;6865;52.552;13.434;2023-08-06T04:34:39;8.57;;;7.78;;
13588;SDS011;6865;52.552;13.434;2023-08-06T04:37:06;9.55;;;8.20;;
13588;SDS011;6865;52.552;13.434;2023-08-06T04:39:33;8.55;;;7.75;;
13588;SDS011;6865;52.552;13.434;2023-08-06T04:42:00;8.68;;;7.78;;
13588;SDS011;6865;52.552;13.434;2023-08-06T04:44:26;9.13;;;8.23;;
13588;SDS011;6865;52.552;13.434;2023-08-06T04:46:53;9.15;;;8.25;;
13588;SDS011;6865;52.552;13.434;2023-08-06T04:49:20;8.20;;;7.43;;
13588;SDS011;6865;52.552;13.434;2023-08-06T04:51:47;8.25;;;7.47;;
13588;SDS011;6865;52.552;13.434;2023-08-06T04:54:14;7.78;;;7.00;;
13588;SDS011;6865;52.552;13.434;2023-08-06T04:56:40;8.07;;;7.28;;
13588;SDS011;6865;52.552;13.434;2023-08-06T04:59:07;8.27;;;7.55;;
13588;SDS011;6865;52.552;13.434;2023-08-06T05:01:34;7.97;;;7.18;;
13588;SDS011;6865;52.552;13.434;2023-08-06T05:04:00;8.63;;;7.72;;
13588;SDS011;6865;52.552;13.434;2023-08-06T05:06:27;7.53;;;6.82;;
13588;SDS011;6865;52.552;13.434;2023-08-06T05:08:54;8.60;;;7.80;;
13588;SDS011;6865;52.552;13.434;2023-08-06T05:11:20;8.10;;;7.30;;
13588;SDS011;6865;52.552;13.434;2023-08-06T05:13:47;7.95;;;7.25;;
13588;SDS011;6865;52.552;13.434;2023-08-06T05:16:14;7.75;;;6.55;;
13588;SDS011;6865;52.552;13.434;2023-08-06T05:18:40;8.20;;;7.00;;
13588;SDS011;6865;52.552;13.434;2023-08-06T05:21:07;9.95;;;8.90;;
13588;SDS011;6865;52.552;13.434;2023-08-06T05:23:34;8.40;;;7.57;;
13588;SDS011;6865;52.552;13.434;2023-08-06T05:26:01;8.82;;;7.90;;
13588;SDS011;6865;52.552;13.434;2023-08-06T05:28:27;8.88;;;8.00;;
13588;SDS011;6865;52.552;13.434;2023-08-06T05:30:54;7.30;;;6.65;;
13588;SDS011;6865;52.552;13.434;2023-08-06T05:33:21;8.73;;;7.82;;
13588;SDS011;6865;52.552;13.434;2023-08-06T05:35:49;8.45;;;7.65;;
13588;SDS011;6865;52.552;13.434;2023-08-06T05:38:16;9.15;;;8.23;;
13588;SDS011;6865;52.552;13.434;2023-08-06T05:40:43;8.82;;;7.97;;
13588;SDS011;6865;52.552;13.434;2023-08-06T05:43:10;9.05;;;8.18;;
13588;SDS011;6865;52.552;13.434;2023-08-06T05:45:36;8.05;;;7.35;;
13588;SDS011;6865;52.552;13.434;2023-08-06T05:48:03;9.07;;;8.18;;
13588;SDS011;6865;52.552;13.434;2023-08-06T05:50:30;9.63;;;8.63;;
13588;SDS011;6865;52.552;13.434;2023-08-06T05:52:57;9.00;;;8.10;;
13588;SDS011;6865;52.552;13.434;2023-08-06T05:55:27;9.35;;;8.35;;
13588;SDS011;6865;52.552;13.434;2023-08-06T05:57:54;9.15;;;8.23;;
13588;SDS011;6865;52.552;13.434;2023-08-06T06:00:21;9.70;;;8.77;;
13588;SDS011;6865;52.552;13.434;2023-08-06T06:02:48;9.57;;;8.57;;
13588;SDS011;6865;52.552;13.434;2023-08-06T06:05:14;8.80;;;7.53;;
13588;SDS011;6865;52.552;13.434;2023-08-06T06:07:41;8.70;;;7.90;;
13588;SDS011;6865;52.552;13.434;2023-08-06T06:10:08;8.82;;;7.97;;
13588;SDS011;6865;52.552;13.434;2023-08-06T06:12:35;8.00;;;7.20;;
13588;SDS011;6865;52.552;13.434;2023-08-06T06:15:04;8.18;;;7.38;;
13588;SDS011;6865;52.552;13.434;2023-08-06T06:17:31;8.75;;;7.95;;
13588;SDS011;6865;52.552;13.434;2023-08-06T06:19:58;9.73;;;8.52;;
13588;SDS011;6865;52.552;13.434;2023-08-06T06:22:25;10.82;;;8.23;;
13588;SDS011;6865;52.552;13.434;2023-08-06T06:24:51;9.75;;;7.90;;
13588;SDS011;6865;52.552;13.434;2023-08-06T06:27:18;9.18;;;8.02;;
13588;SDS011;6865;52.552;13.434;2023-08-06T06:29:45;8.82;;;8.02;;
13588;SDS011;6865;52.552;13.434;2023-08-06T06:32:11;10.90;;;8.00;;
13588;SDS011;6865;52.552;13.434;2023-08-06T06:34:38;8.70;;;7.80;;
13588;SDS011;6865;52.552;13.434;2023-08-06T06:37:05;8.18;;;7.38;;
13588;SDS011;6865;52.552;13.434;2023-08-06T06:39:31;7.97;;;7.28;;
13588;SDS011;6865;52.552;13.434;2023-08-06T06:41:58;7.82;;;7.13;;
13588;SDS011;6865;52.552;13.434;2023-08-06T06:44:25;8.25;;;7.47;;
13588;SDS011;6865;52.552;13.434;2023-08-06T06:46:51;7.32;;;6.72;;
13588;SDS011;6865;52.552;13.434;2023-08-06T06:49:18;8.25;;;7.50;;
13588;SDS011;6865;52.552;13.434;2023-08-06T06:51:45;8.55;;;7.72;;
13588;SDS011;6865;52.552;13.434;2023-08-06T06:54:11;8.45;;;7.65;;
13588;SDS011;6865;52.552;13.434;2023-08-06T06:56:38;8.15;;;7.45;;
13588;SDS011;6865;52.552;13.434;2023-08-06T06:59:05;8.90;;;8.05;;
13588;SDS011;6865;52.552;13.434;2023-08-06T07:01:31;8.45;;;7.65;;
13588;SDS011;6865;52.552;13.434;2023-08-06T07:03:59;8.60;;;7.72;;
13588;SDS011;6865;52.552;13.434;2023-08-06T07:06:31;9.27;;;8.38;;
13588;SDS011;6865;52.552;13.434;2023-08-06T07:08:58;8.90;;;8.07;;
13588;SDS011;6865;52.552;13.434;2023-08-06T07:11:24;8.75;;;7.95;;
13588;SDS011;6865;52.552;13.434;2023-08-06T07:13:58;8.20;;;7.40;;
13588;SDS011;6865;52.552;13.434;2023-08-06T07:16:25;8.02;;;7.32;;
13588;SDS011;6865;52.552;13.434;2023-08-06T07:18:53;8.52;;;7.72;;
13588;SDS011;6865;52.552;13.434;2023-08-06T07:21:20;8.05;;;7.25;;
13588;SDS011;6865;52.552;13.434;2023-08-06T07:23:47;7.22;;;6.53;;
13588;SDS011;6865;52.552;13.434;2023-08-06T07:26:16;6.30;;;5.70;;
13588;SDS011;6865;52.552;13.434;2023-08-06T07:28:43;7.07;;;6.38;;
13588;SDS011;6865;52.552;13.434;2023-08-06T07:31:10;6.78;;;6.13;;
13588;SDS011;6865;52.552;13.434;2023-08-06T07:33:37;7.60;;;6.88;;
13588;SDS011;6865;52.552;13.434;2023-08-06T07:36:11;8.13;;;7.30;;
13588;SDS011;6865;52.552;13.434;2023-08-06T07:38:39;7.70;;;7.10;;
13588;SDS011;6865;52.552;13.434;2023-08-06T07:41:05;9.02;;;8.10;;
13588;SDS011;6865;52.552;13.434;2023-08-06T07:43:32;8.55;;;7.50;;
13588;SDS011;6865;52.552;13.434;2023-08-06T07:45:59;8.82;;;8.02;;
13588;SDS011;6865;52.552;13.434;2023-08-06T07:48:27;9.50;;;8.60;;
13588;SDS011;6865;52.552;13.434;2023-08-06T07:50:54;8.98;;;8.07;;
13588;SDS011;6865;52.552;13.434;2023-08-06T07:53:21;9.40;;;8.50;;
13588;SDS011;6865;52.552;13.434;2023-08-06T07:55:50;9.48;;;8.60;;
13588;SDS011;6865;52.552;13.434;2023-08-06T07:58:17;8.93;;;8.13;;
13588;SDS011;6865;52.552;13.434;2023-08-06T08:00:45;10.23;;;9.30;;
13588;SDS011;6865;52.552;13.434;2023-08-06T08:03:13;10.25;;;9.27;;
13588;SDS011;6865;52.552;13.434;2023-08-06T08:05:41;10.48;;;9.48;;
13588;SDS011;6865;52.552;13.434;2023-08-06T08:08:09;10.10;;;9.10;;
13588;SDS011;6865;52.552;13.434;2023-08-06T08:10:36;11.15;;;10.05;;
13588;SDS011;6865;52.552;13.434;2023-08-06T08:13:04;10.52;;;9.45;;
13588;SDS011;6865;52.552;13.434;2023-08-06T08:15:31;9.90;;;8.90;;
13588;SDS011;6865;52.552;13.434;2023-08-06T08:17:58;10.30;;;9.35;;
13588;SDS011;6865;52.552;13.434;2023-08-06T08:20:26;9.63;;;8.60;;
13588;SDS011;6865;52.552;13.434;2023-08-06T08:22:58;9.32;;;8.52;;
13588;SDS011;6865;52.552;13.434;2023-08-06T08:25:26;9.60;;;8.70;;
13588;SDS011;6865;52.552;13.434;2023-08-06T08:27:57;10.20;;;9.35;;
13588;SDS011;6865;52.552;13.434;2023-08-06T08:30:24;10.32;;;9.35;;
13588;SDS011;6865;52.552;13.434;2023-08-06T08:32:51;11.60;;;10.50;;
13588;SDS011;6865;52.552;13.434;2023-08-06T08:35:18;10.88;;;9.77;;
13588;SDS011;6865;52.552;13.434;2023-08-06T08:37:45;10.25;;;9.25;;
13588;SDS011;6865;52.552;13.434;2023-08-06T08:40:13;10.25;;;9.35;;
13588;SDS011;6865;52.552;13.434;2023-08-06T08:42:45;11.20;;;10.20;;
13588;SDS011;6865;52.552;13.434;2023-08-06T08:45:13;11.98;;;10.88;;
13588;SDS011;6865;52.552;13.434;2023-08-06T08:47:41;10.70;;;9.63;;
13588;SDS011;6865;52.552;13.434;2023-08-06T08:50:09;11.73;;;10.63;;
13588;SDS011;6865;52.552;13.434;2023-08-06T08:52:38;11.25;;;10.10;;
13588;SDS011;6865;52.552;13.434;2023-08-06T08:55:09;10.00;;;8.98;;
13588;SDS011;6865;52.552;13.434;2023-08-06T08:57:36;10.38;;;9.48;;
13588;SDS011;6865;52.552;13.434;2023-08-06T09:00:03;10.27;;;9.20;;
13588;SDS011;6865;52.552;13.434;2023-08-06T09:02:31;11.35;;;10.18;;
13588;SDS011;6865;52.552;13.434;2023-08-06T09:04:59;10.55;;;9.60;;
13588;SDS011;6865;52.552;13.434;2023-08-06T09:07:33;10.45;;;9.35;;
13588;SDS011;6865;52.552;13.434;2023-08-06T09:10:05;11.40;;;10.30;;
13588;SDS011;6865;52.552;13.434;2023-08-06T09:12:36;10.70;;;9.60;;
13588;SDS011;6865;52.552;13.434;2023-08-06T09:15:03;13.77;;;11.50;;
13588;SDS011;6865;52.552;13.434;2023-08-06T09:17:30;10.80;;;9.80;;
13588;SDS011;6865;52.552;13.434;2023-08-06T09:19:57;10.75;;;9.68;;
13588;SDS011;6865;52.552;13.434;2023-08-06T09:22:24;11.55;;;10.45;;
13588;SDS011;6865;52.552;13.434;2023-08-06T09:24:51;11.45;;;10.30;;
13588;SDS011;6865;52.552;13.434;2023-08-06T09:27:17;11.90;;;10.80;;
13588;SDS011;6865;52.552;13.434;2023-08-06T09:29:44;10.90;;;9.93;;
13588;SDS011;6865;52.552;13.434;2023-08-06T09:32:12;11.27;;;10.27;;
13588;SDS011;6865;52.552;13.434;2023-08-06T09:34:39;11.10;;;10.10;;
13588;SDS011;6865;52.552;13.434;2023-08-06T09:37:11;10.15;;;9.25;;
13588;SDS011;6865;52.552;13.434;2023-08-06T09:39:38;11.27;;;10.18;;
13588;SDS011;6865;52.552;13.434;2023-08-06T09:42:09;10.88;;;9.88;;
13588;SDS011;6865;52.552;13.434;2023-08-06T09:44:35;12.73;;;11.52;;
13588;SDS011;6865;52.552;13.434;2023-08-06T09:47:03;10.27;;;9.30;;
13588;SDS011;6865;52.552;13.434;2023-08-06T09:52:00;9.23;;;8.43;;
13588;SDS011;6865;52.552;13.434;2023-08-06T09:54:27;9.38;;;8.48;;
13588;SDS011;6865;52.552;13.434;2023-08-06T09:56:55;7.82;;;7.13;;
13588;SDS011;6865;52.552;13.434;2023-08-06T09:59:22;7.88;;;7.10;;
13588;SDS011;6865;52.552;13.434;2023-08-06T10:01:50;8.20;;;7.50;;
13588;SDS011;6865;52.552;13.434;2023-08-06T10:04:19;8.38;;;7.57;;
13588;SDS011;6865;52.552;13.434;2023-08-06T10:06:51;8.00;;;7.30;;
13588;SDS011;6865;52.552;13.434;2023-08-06T10:09:19;8.13;;;7.40;;
13588;SDS011;6865;52.552;13.434;2023-08-06T10:11:48;5.53;;;4.70;;
13588;SDS011;6865;52.552;13.434;2023-08-06T10:16:47;5.05;;;4.65;;
13588;SDS011;6865;52.552;13.434;2023-08-06T10:19:15;5.22;;;4.72;;
13588;SDS011;6865;52.552;13.434;2023-08-06T10:24:48;4.90;;;4.45;;
13588;SDS011;6865;52.552;13.434;2023-08-06T10:27:20;5.63;;;5.10;;
13588;SDS011;6865;52.552;13.434;2023-08-06T10:29:48;5.25;;;4.78;;
13588;SDS011;6865;52.552;13.434;2023-08-06T10:32:18;4.95;;;4.50;;
13588;SDS011;6865;52.552;13.434;2023-08-06T10:34:54;4.43;;;3.90;;
13588;SDS011;6865;52.552;13.434;2023-08-06T10:37:34;4.00;;;3.70;;
13588;SDS011;6865;52.552;13.434;2023-08-06T10:40:05;4.00;;;3.70;;
13588;SDS011;6865;52.552;13.434;2023-08-06T10:42:33;4.85;;;4.45;;
13588;SDS011;6865;52.552;13.434;2023-08-06T10:45:13;4.75;;;4.35;;
13588;SDS011;6865;52.552;13.434;2023-08-06T10:47:42;4.90;;;4.50;;
13588;SDS011;6865;52.552;13.434;2023-08-06T10:50:15;4.65;;;4.25;;
13588;SDS011;6865;52.552;13.434;2023-08-06T10:52:44;5.05;;;4.63;;
13588;SDS011;6865;52.552;13.434;2023-08-06T10:55:11;5.38;;;4.88;;
13588;SDS011;6865;52.552;13.434;2023-08-06T10:57:38;6.60;;;4.90;;
13588;SDS011;6865;52.552;13.434;2023-08-06T11:00:06;5.97;;;5.47;;
13588;SDS011;6865;52.552;13.434;2023-08-06T11:02:42;6.70;;;6.10;;
13588;SDS011;6865;52.552;13.434;2023-08-06T11:05:10;6.45;;;5.85;;
13588;SDS011;6865;52.552;13.434;2023-08-06T11:07:37;6.47;;;5.88;;
13588;SDS011;6865;52.552;13.434;2023-08-06T11:10:05;6.82;;;6.22;;
13588;SDS011;6865;52.552;13.434;2023-08-06T11:12:39;6.40;;;5.80;;
13588;SDS011;6865;52.552;13.434;2023-08-06T11:15:06;6.10;;;5.50;;
13588;SDS011;6865;52.552;13.434;2023-08-06T11:17:33;6.82;;;6.18;;
13588;SDS011;6865;52.552;13.434;2023-08-06T11:20:02;6.72;;;6.13;;
13588;SDS011;6865;52.552;13.434;2023-08-06T11:22:30;7.63;;;6.38;;
13588;SDS011;6865;52.552;13.434;2023-08-06T11:24:58;6.70;;;6.03;;
13588;SDS011;6865;52.552;13.434;2023-08-06T11:27:27;5.97;;;5.47;;
13588;SDS011;6865;52.552;13.434;2023-08-06T11:29:55;7.70;;;7.00;;
13588;SDS011;6865;52.552;13.434;2023-08-06T11:32:25;6.88;;;6.15;;
13588;SDS011;6865;52.552;13.434;2023-08-06T11:34:54;6.43;;;5.90;;
13588;SDS011;6865;52.552;13.434;2023-08-06T11:37:25;7.38;;;6.68;;
13588;SDS011;6865;52.552;13.434;2023-08-06T11:39:53;8.02;;;6.57;;
13588;SDS011;6865;52.552;13.434;2023-08-06T11:42:20;8.43;;;7.38;;
13588;SDS011;6865;52.552;13.434;2023-08-06T11:44:49;7.47;;;6.65;;
13588;SDS011;6865;52.552;13.434;2023-08-06T11:47:17;7.50;;;6.80;;
13588;SDS011;6865;52.552;13.434;2023-08-06T11:49:47;6.75;;;6.15;;
13588;SDS011;6865;52.552;13.434;2023-08-06T11:52:22;7.60;;;6.90;;
13588;SDS011;6865;52.552;13.434;2023-08-06T11:55:00;6.97;;;6.28;;
13588;SDS011;6865;52.552;13.434;2023-08-06T11:57:45;7.57;;;6.88;;
13588;SDS011;6865;52.552;13.434;2023-08-06T12:00:13;7.75;;;7.00;;
13588;SDS011;6865;52.552;13.434;2023-08-06T12:02:41;7.78;;;7.07;;
13588;SDS011;6865;52.552;13.434;2023-08-06T12:05:11;7.95;;;7.20;;
13588;SDS011;6865;52.552;13.434;2023-08-06T12:07:43;8.43;;;7.63;;
13588;SDS011;6865;52.552;13.434;2023-08-06T12:10:14;9.20;;;8.30;;
13588;SDS011;6865;52.552;13.434;2023-08-06T12:12:43;8.10;;;7.28;;
13588;SDS011;6865;52.552;13.434;2023-08-06T12:15:09;8.05;;;7.22;;
13588;SDS011;6865;52.552;13.434;2023-08-06T12:17:36;8.25;;;7.45;;
13588;SDS011;6865;52.552;13.434;2023-08-06T12:20:04;7.70;;;6.93;;
13588;SDS011;6865;52.552;13.434;2023-08-06T12:22:32;8.10;;;7.30;;
13588;SDS011;6865;52.552;13.434;2023-08-06T12:25:05;8.25;;;6.78;;
13588;SDS011;6865;52.552;13.434;2023-08-06T12:27:34;8.00;;;7.07;;
13588;SDS011;6865;52.552;13.434;2023-08-06T12:30:02;8.30;;;7.50;;
13588;SDS011;6865;52.552;13.434;2023-08-06T12:32:30;7.13;;;6.53;;
13588;SDS011;6865;52.552;13.434;2023-08-06T12:34:57;7.53;;;6.75;;
13588;SDS011;6865;52.552;13.434;2023-08-06T12:37:24;7.70;;;6.90;;
13588;SDS011;6865;52.552;13.434;2023-08-06T12:39:51;9.38;;;7.85;;
13588;SDS011;6865;52.552;13.434;2023-08-06T12:42:18;8.00;;;7.20;;
13588;SDS011;6865;52.552;13.434;2023-08-06T12:44:45;7.85;;;7.07;;
13588;SDS011;6865;52.552;13.434;2023-08-06T12:47:12;9.13;;;7.07;;
13588;SDS011;6865;52.552;13.434;2023-08-06T12:49:38;7.93;;;7.13;;
13588;SDS011;6865;52.552;13.434;2023-08-06T12:52:05;8.40;;;7.60;;
13588;SDS011;6865;52.552;13.434;2023-08-06T12:54:33;7.85;;;7.15;;
13588;SDS011;6865;52.552;13.434;2023-08-06T12:57:03;8.57;;;7.57;;
13588;SDS011;6865;52.552;13.434;2023-08-06T12:59:31;8.77;;;7.88;;
13588;SDS011;6865;52.552;13.434;2023-08-06T13:01:59;8.77;;;7.03;;
13588;SDS011;6865;52.552;13.434;2023-08-06T13:04:26;7.28;;;6.57;;
13588;SDS011;6865;52.552;13.434;2023-08-06T13:06:54;8.90;;;7.45;;
13588;SDS011;6865;52.552;13.434;2023-08-06T13:09:21;9.10;;;6.72;;
13588;SDS011;6865;52.552;13.434;2023-08-06T13:11:47;7.32;;;6.57;;
13588;SDS011;6865;52.552;13.434;2023-08-06T13:14:16;8.27;;;7.30;;
13588;SDS011;6865;52.552;13.434;2023-08-06T13:16:43;8.18;;;7.38;;
13588;SDS011;6865;52.552;13.434;2023-08-06T13:19:11;7.57;;;6.78;;
13588;SDS011;6865;52.552;13.434;2023-08-06T13:21:58;7.63;;;6.85;;
13588;SDS011;6865;52.552;13.434;2023-08-06T13:24:33;8.05;;;6.40;;
13588;SDS011;6865;52.552;13.434;2023-08-06T13:26:59;8.07;;;6.35;;
13588;SDS011;6865;52.552;13.434;2023-08-06T13:29:26;6.80;;;6.20;;
13588;SDS011;6865;52.552;13.434;2023-08-06T13:31:53;7.38;;;6.53;;
13588;SDS011;6865;52.552;13.434;2023-08-06T13:34:20;7.50;;;6.22;;
13588;SDS011;6865;52.552;13.434;2023-08-06T13:36:47;7.60;;;6.25;;
13588;SDS011;6865;52.552;13.434;2023-08-06T13:39:14;6.00;;;5.35;;
13588;SDS011;6865;52.552;13.434;2023-08-06T13:41:44;7.03;;;6.32;;
13588;SDS011;6865;52.552;13.434;2023-08-06T13:44:11;6.63;;;5.20;;
13588;SDS011;6865;52.552;13.434;2023-08-06T13:46:40;6.82;;;5.32;;
13588;SDS011;6865;52.552;13.434;2023-08-06T13:49:07;6.70;;;5.15;;
13588;SDS011;6865;52.552;13.434;2023-08-06T13:51:34;5.60;;;4.65;;
13588;SDS011;6865;52.552;13.434;2023-08-06T13:54:02;6.15;;;5.47;;
13588;SDS011;6865;52.552;13.434;2023-08-06T13:56:29;5.95;;;5.35;;
13588;SDS011;6865;52.552;13.434;2023-08-06T13:58:58;6.43;;;5.43;;
13588;SDS011;6865;52.552;13.434;2023-08-06T14:01:25;5.60;;;5.10;;
13588;SDS011;6865;52.552;13.434;2023-08-06T14:04:12;7.82;;;4.90;;
13588;SDS011;6865;52.552;13.434;2023-08-06T14:06:39;6.82;;;4.57;;
13588;SDS011;6865;52.552;13.434;2023-08-06T14:09:06;6.60;;;4.47;;
13588;SDS011;6865;52.552;13.434;2023-08-06T14:11:33;6.22;;;4.32;;
13588;SDS011;6865;52.552;13.434;2023-08-06T14:14:00;6.05;;;4.70;;
13588;SDS011;6865;52.552;13.434;2023-08-06T14:16:29;5.55;;;4.97;;
13588;SDS011;6865;52.552;13.434;2023-08-06T14:18:56;5.93;;;4.53;;
13588;SDS011;6865;52.552;13.434;2023-08-06T14:21:22;5.10;;;4.43;;
13588;SDS011;6865;52.552;13.434;2023-08-06T14:23:49;6.50;;;4.60;;
13588;SDS011;6865;52.552;13.434;2023-08-06T14:26:16;6.72;;;4.47;;
13588;SDS011;6865;52.552;13.434;2023-08-06T14:28:43;5.90;;;4.85;;
13588;SDS011;6865;52.552;13.434;2023-08-06T14:31:11;5.97;;;4.68;;
13588;SDS011;6865;52.552;13.434;2023-08-06T14:33:38;5.50;;;4.40;;
13588;SDS011;6865;52.552;13.434;2023-08-06T14:36:04;3.95;;;3.55;;
13588;SDS011;6865;52.552;13.434;2023-08-06T14:38:31;5.25;;;4.18;;
13588;SDS011;6865;52.552;13.434;2023-08-06T14:41:03;4.50;;;4.00;;
13588;SDS011;6865;52.552;13.434;2023-08-06T14:43:30;5.75;;;4.35;;
13588;SDS011;6865;52.552;13.434;2023-08-06T14:45:56;5.05;;;4.32;;
13588;SDS011;6865;52.552;13.434;2023-08-06T14:48:23;6.15;;;3.50;;
13588;SDS011;6865;52.552;13.434;2023-08-06T14:50:50;4.72;;;3.50;;
13588;SDS011;6865;52.552;13.434;2023-08-06T14:53:16;4.88;;;3.40;;
13588;SDS011;6865;52.552;13.434;2023-08-06T14:55:43;3.63;;;3.33;;
13588;SDS011;6865;52.552;13.434;2023-08-06T14:58:10;3.70;;;3.30;;
13588;SDS011;6865;52.552;13.434;2023-08-06T15:00:36;3.90;;;3.50;;